Ashwood, Oregon
Current Conditions -  °F | °C
As of 4:15 PM on Monday 24 Nov 2014 (Local Time) from KS39 Reporting Station
Overcast Overcast  
Wind Chill: 42°   Ceiling: 10000
Heat Index: 45°   Visibility: 10mi
Dew Point: 34°   Wind: 5mph
Humidity: 66%   Direction: 70°ENE
Pressure: 30.29"   Gusts: NA
Location:  44.73°N, 120.76°W
Report Text: KS39 250015Z AUTO 07004KT 10SM FEW065 OVC100 07/01 A3029 RMK AO2
Loading
Personal Weather Stations






























Interactive Weather Map New forecast layout! Learn more

10-Day Weather Forecast

Advertisements
Track Severe Weather on mobile